Airport Name : Brandon Muni

Other Name : Brandon Muni

ICAO : CYBR

IATA : YBR

FAA :

Latitude : 49.91

Longitude : -99.951944

Country : Canada

Local Date and Time : 7/16/2018 2:43:00 PM

 

TAF (Terminal Aerodrome Forecast)

TAF CYBR 161738Z 1618/1706 32008KT P6SM BKN030 FM170200 32005KT P6SM FEW040 RMK NXT FCST BY 170000Z

 

METAR (METeorological Aerodrome Report)

CYBR 161900Z 33004G15KT 270V010 15SM BKN038 BKN250 19/09 A3012 RMK SC6CI1 CI TR SLP209 DENSITY ALT 1900FT

CYBR 161800Z 32008KT 15SM BKN039 18/09 A3011 RMK SC7 OBS TKN +4 SLP207 DENSITY ALT 1900FT

CYBR 161700Z VRB05KT 15SM BKN030 16/09 A3011 RMK SC7 SLP208 DENSITY ALT 1600FT

CYBR 161600Z 32009G16KT 290V360 15SM BKN028 17/09 A3011 RMK SC6 SLP207 DENSITY ALT 1700FT